Time;durP1;ratioP1;P1;durP2;ratioP2;P2;SDS_P1;SDS_P2;PMS_P1;PMS_P2;Temp;Humidity;BMP_temperature;BMP_pressure;BME280_temperature;BME280_humidity;BME280_pressure;Samples;Min_cycle;Max_cycle;Signal;HPM_P1;HPM_P2
2022/11/04 00:00:00;;;;;;;157.93;76.55;;;9.30;99.90;;;;;;5013653;28;20077;-72
2022/11/04 00:02:26;;;;;;;169.48;75.38;;;9.30;99.90;;;;;;5009512;28;20026;-73
2022/11/04 00:04:52;;;;;;;143.50;75.40;;;9.30;99.90;;;;;;5012853;28;20022;-72
2022/11/04 00:10:02;;;;;;;117.72;67.80;;;9.30;99.90;;;;;;5009771;28;20027;-73
2022/11/04 00:12:28;;;;;;;128.43;70.05;;;9.40;99.90;;;;;;5013325;28;20125;-73
2022/11/04 00:17:17;;;;;;;129.95;70.60;;;9.30;99.90;;;;;;5012332;28;20583;-73
2022/11/04 00:17:40;;;;;;;120.60;62.90;;;9.30;99.90;;;;;;5010999;28;20059;-73
2022/11/04 00:33:53;;;;;;;91.38;54.17;;;8.90;99.90;;;;;;5010363;28;20080;-73
2022/11/04 00:36:20;;;;;;;130.93;63.80;;;8.90;99.90;;;;;;5013152;28;20030;-73
2022/11/04 00:38:46;;;;;;;91.75;50.40;;;8.80;99.90;;;;;;5012637;28;20559;-73
2022/11/04 00:41:27;;;;;;;85.13;50.30;;;8.80;99.90;;;;;;5012906;28;20102;-74
2022/11/04 00:44:03;;;;;;;188.55;75.28;;;8.90;99.90;;;;;;4978478;28;20482;-73
2022/11/04 00:46:32;;;;;;;109.38;58.75;;;8.90;99.90;;;;;;5013072;28;20033;-73
2022/11/04 00:48:58;;;;;;;97.22;55.00;;;8.90;99.90;;;;;;5012360;28;20466;-73
2022/11/04 00:51:24;;;;;;;104.25;57.38;;;9.00;99.90;;;;;;5012665;28;20028;-73
2022/11/04 00:53:50;;;;;;;87.13;53.00;;;9.00;99.90;;;;;;5012237;28;20100;-74
2022/11/04 00:56:16;;;;;;;94.57;52.53;;;9.10;99.90;;;;;;5012743;28;20069;-75
2022/11/04 00:58:42;;;;;;;136.88;56.95;;;9.10;99.90;;;;;;5012314;28;20069;-73
2022/11/04 01:01:16;;;;;;;82.85;52.65;;;9.00;99.90;;;;;;4994750;28;20152;-74
2022/11/04 01:03:43;;;;;;;90.15;55.22;;;9.10;99.90;;;;;;5012436;28;20030;-73
2022/11/04 01:06:22;;;;;;;111.15;59.45;;;9.10;99.90;;;;;;5012767;28;20033;-73
2022/11/04 01:08:48;;;;;;;141.07;63.83;;;9.00;99.90;;;;;;4999980;28;20064;-74
2022/11/04 01:11:15;;;;;;;108.47;50.20;;;8.80;99.90;;;;;;5011482;28;20053;-73
2022/11/04 01:13:41;;;;;;;119.68;47.42;;;8.80;99.90;;;;;;4998063;28;20526;-74
2022/11/04 01:16:09;;;;;;;77.00;38.28;;;8.80;99.90;;;;;;5012300;28;20042;-74
2022/11/04 01:18:35;;;;;;;63.38;36.33;;;8.80;99.90;;;;;;5011835;28;20064;-74
2022/11/04 01:21:02;;;;;;;90.43;37.60;;;8.80;99.90;;;;;;5012337;28;20025;-74
2022/11/04 01:23:28;;;;;;;89.13;38.25;;;8.70;99.90;;;;;;5012108;28;20030;-75
2022/11/04 01:25:54;;;;;;;99.80;41.50;;;8.60;99.90;;;;;;5010151;28;20030;-74
2022/11/04 01:28:20;;;;;;;179.30;49.65;;;8.70;99.90;;;;;;5007212;28;20026;-74
2022/11/04 01:30:46;;;;;;;105.47;39.78;;;8.50;99.90;;;;;;5006939;28;20025;-74
2022/11/04 01:33:12;;;;;;;111.50;42.25;;;8.60;99.90;;;;;;5010900;28;20053;-73
2022/11/04 01:35:38;;;;;;;97.63;43.15;;;8.50;99.90;;;;;;5011764;28;20037;-74
2022/11/04 01:38:03;;;;;;;133.77;46.83;;;8.50;99.90;;;;;;5011566;28;20026;-74
2022/11/04 01:40:34;;;;;;;141.63;45.67;;;8.30;99.90;;;;;;5011742;28;20026;-74
2022/11/04 01:43:00;;;;;;;134.23;45.65;;;8.30;99.90;;;;;;5011705;28;20491;-74
2022/11/04 01:45:26;;;;;;;105.72;44.50;;;8.20;99.90;;;;;;5009398;28;20034;-74
2022/11/04 01:48:04;;;;;;;108.93;42.17;;;8.20;99.90;;;;;;5001480;28;20465;-74
2022/11/04 01:50:32;;;;;;;98.15;41.38;;;8.20;99.90;;;;;;5011429;28;20030;-74
2022/11/04 01:53:25;;;;;;;84.63;42.92;;;8.20;99.90;;;;;;5011655;28;20026;-74
2022/11/04 01:55:55;;;;;;;71.95;38.40;;;8.20;99.90;;;;;;5011619;28;20125;-73
2022/11/04 01:58:26;;;;;;;90.30;38.92;;;8.20;99.90;;;;;;5011515;28;20093;-73
2022/11/04 02:00:52;;;;;;;86.25;39.72;;;8.30;99.90;;;;;;5011266;28;20030;-74
2022/11/04 02:03:22;;;;;;;88.68;40.20;;;8.30;99.90;;;;;;5011627;28;20110;-74
2022/11/04 02:05:49;;;;;;;63.47;37.28;;;8.40;99.90;;;;;;5011944;28;20029;-74
2022/11/04 02:08:16;;;;;;;68.07;36.42;;;8.40;99.90;;;;;;5011715;28;20103;-74
2022/11/04 02:10:51;;;;;;;66.18;36.05;;;8.40;99.90;;;;;;5011658;28;20049;-74
2022/11/04 02:13:17;;;;;;;67.70;34.70;;;8.50;99.90;;;;;;4993517;28;20055;-74
2022/11/04 02:16:01;;;;;;;59.83;34.53;;;8.50;99.90;;;;;;5011341;28;20057;-74
2022/11/04 02:18:58;;;;;;;67.78;35.63;;;8.50;99.90;;;;;;5011255;28;20022;-74
2022/11/04 02:21:56;;;;;;;61.20;34.80;;;8.60;99.90;;;;;;4993432;28;20370;-74
2022/11/04 02:24:49;;;;;;;62.97;38.78;;;8.70;99.90;;;;;;4921640;29;20398;-74
2022/11/04 02:27:40;;;;;;;60.53;34.97;;;8.80;99.90;;;;;;4935366;29;20039;-74
2022/11/04 02:30:08;;;;;;;74.10;38.13;;;8.80;99.90;;;;;;4934186;29;20379;-74
2022/11/04 02:32:53;;;;;;;73.15;36.28;;;8.90;99.90;;;;;;4923499;29;20020;-75
2022/11/04 02:35:37;;;;;;;88.40;36.53;;;8.90;99.90;;;;;;4909655;29;20055;-73
2022/11/04 02:38:24;;;;;;;67.38;33.20;;;8.80;99.90;;;;;;4907223;29;20135;-74
2022/11/04 02:41:08;;;;;;;59.75;34.17;;;8.80;99.90;;;;;;4917625;29;20044;-73
2022/11/04 02:43:44;;;;;;;67.35;33.33;;;8.90;99.90;;;;;;4913328;29;20036;-74
2022/11/04 02:46:24;;;;;;;75.32;33.83;;;8.90;99.90;;;;;;4929533;29;20051;-73
2022/11/04 02:49:17;;;;;;;65.88;29.42;;;8.70;99.90;;;;;;4911349;29;20051;-74
2022/11/04 02:51:55;;;;;;;65.20;31.83;;;8.60;99.90;;;;;;4866482;29;20485;-73
2022/11/04 02:54:59;;;;;;;74.47;33.90;;;8.60;99.90;;;;;;4851592;29;20070;-74
2022/11/04 02:57:29;;;;;;;78.25;35.35;;;8.50;99.90;;;;;;4858830;29;20049;-73
2022/11/04 03:00:05;;;;;;;86.13;34.63;;;8.40;99.90;;;;;;4870063;29;20123;-74
2022/11/04 03:03:08;;;;;;;82.63;33.65;;;8.40;99.90;;;;;;4934912;29;20138;-76
2022/11/04 03:05:37;;;;;;;82.78;31.70;;;8.40;99.90;;;;;;4923868;29;20341;-74
2022/11/04 03:08:08;;;;;;;62.92;29.15;;;8.40;99.90;;;;;;4914434;29;20119;-74
2022/11/04 03:10:35;;;;;;;81.75;32.40;;;8.20;99.90;;;;;;4913130;29;20036;-74
2022/11/04 03:13:15;;;;;;;63.30;30.88;;;8.20;99.90;;;;;;4918825;29;20134;-74
2022/11/04 03:15:50;;;;;;;64.68;34.38;;;8.20;99.90;;;;;;4920107;29;20048;-74
2022/11/04 03:18:36;;;;;;;85.40;39.60;;;8.20;99.90;;;;;;4930234;29;20035;-74
2022/11/04 03:21:08;;;;;;;65.75;37.55;;;8.20;99.90;;;;;;4917647;29;20035;-74
2022/11/04 03:23:34;;;;;;;99.43;41.05;;;8.30;99.90;;;;;;4915435;29;20435;-74
2022/11/04 03:26:31;;;;;;;94.18;38.72;;;8.20;99.90;;;;;;4915486;29;20060;-74
2022/11/04 03:29:41;;;;;;;81.20;38.55;;;8.20;99.90;;;;;;4975627;28;20395;-75
2022/11/04 03:32:21;;;;;;;90.32;41.10;;;8.30;99.90;;;;;;4983508;28;20045;-74
2022/11/04 03:34:48;;;;;;;66.28;38.67;;;8.30;99.90;;;;;;5011648;28;20026;-73
2022/11/04 03:37:13;;;;;;;263.88;65.00;;;8.30;99.90;;;;;;5013096;28;20508;-73
2022/11/04 03:39:39;;;;;;;147.73;48.05;;;8.10;99.90;;;;;;5013992;28;20030;-73
2022/11/04 03:42:21;;;;;;;83.97;37.50;;;8.00;99.90;;;;;;5013998;28;20587;-73
2022/11/04 03:44:49;;;;;;;142.52;46.58;;;7.90;99.90;;;;;;5013689;28;20026;-73
2022/11/04 03:47:17;;;;;;;139.88;48.03;;;7.80;99.90;;;;;;5013690;28;20112;-73
2022/11/04 03:49:44;;;;;;;60.00;33.28;;;7.70;99.90;;;;;;5013544;28;20029;-73
2022/11/04 03:52:11;;;;;;;70.65;33.95;;;7.70;99.90;;;;;;5014104;28;20114;-74
2022/11/04 03:54:37;;;;;;;79.60;38.20;;;7.80;99.90;;;;;;5013616;28;20018;-74
2022/11/04 03:57:38;;;;;;;88.30;36.75;;;7.60;99.90;;;;;;4996568;28;20116;-74
2022/11/04 04:00:18;;;;;;;149.98;44.63;;;7.50;99.90;;;;;;5003526;28;20049;-73
2022/11/04 04:02:54;;;;;;;75.47;37.03;;;7.50;99.90;;;;;;5013342;28;20038;-73
2022/11/04 04:05:28;;;;;;;128.20;42.80;;;7.60;99.90;;;;;;5013798;28;20037;-73
2022/11/04 04:08:29;;;;;;;82.90;43.20;;;7.60;99.90;;;;;;5013167;28;20121;-74
2022/11/04 04:11:12;;;;;;;121.63;49.25;;;7.70;99.90;;;;;;5013553;28;20041;-74
2022/11/04 04:14:07;;;;;;;270.45;65.22;;;7.70;99.90;;;;;;5013211;28;20089;-75
2022/11/04 04:16:38;;;;;;;199.35;57.33;;;7.70;99.90;;;;;;4995516;28;20061;-75
2022/11/04 04:19:15;;;;;;;82.60;39.25;;;7.50;99.90;;;;;;5013267;28;20030;-75
2022/11/04 04:21:46;;;;;;;256.65;58.72;;;7.50;99.90;;;;;;4990907;28;20038;-74
2022/11/04 04:29:48;;;;;;;105.35;36.80;;;7.20;99.90;;;;;;5003032;28;20025;-74
2022/11/04 04:32:16;;;;;;;99.78;36.80;;;7.10;99.90;;;;;;5012539;28;20476;-73
2022/11/04 04:34:42;;;;;;;67.28;30.83;;;7.00;99.90;;;;;;4990015;28;20025;-73
2022/11/04 04:37:15;;;;;;;81.97;33.05;;;7.00;99.90;;;;;;5012677;28;20030;-74
2022/11/04 04:45:42;;;;;;;86.35;34.38;;;6.80;99.90;;;;;;5012857;28;20113;-74
2022/11/04 04:48:12;;;;;;;66.90;30.38;;;6.90;99.90;;;;;;5011718;28;20026;-74
2022/11/04 04:50:42;;;;;;;54.58;29.17;;;7.00;99.90;;;;;;5012996;28;20091;-74
2022/11/04 04:53:08;;;;;;;78.30;38.30;;;7.10;99.90;;;;;;5009899;28;20030;-74
2022/11/04 04:55:34;;;;;;;50.97;29.58;;;7.00;99.90;;;;;;5010759;28;20038;-74
2022/11/04 04:58:00;;;;;;;46.83;29.45;;;7.10;99.90;;;;;;5011865;28;20381;-73
2022/11/04 05:00:25;;;;;;;54.60;30.25;;;7.30;99.90;;;;;;5011851;28;20431;-74
2022/11/04 05:02:51;;;;;;;47.85;28.60;;;7.10;99.90;;;;;;5012439;28;20393;-74
2022/11/04 05:05:18;;;;;;;44.80;26.85;;;7.10;99.90;;;;;;5012440;28;20045;-73
2022/11/04 05:07:44;;;;;;;48.00;32.25;;;7.10;99.90;;;;;;5012541;28;20065;-73
2022/11/04 05:10:12;;;;;;;56.08;29.48;;;7.10;99.90;;;;;;5010741;28;20157;-73
2022/11/04 05:15:24;;;;;;;42.25;26.88;;;7.20;99.90;;;;;;5009592;28;20158;-74
2022/11/04 05:17:58;;;;;;;41.33;27.02;;;7.30;99.90;;;;;;5011406;28;20135;-73
2022/11/04 05:20:24;;;;;;;38.97;28.05;;;7.30;99.90;;;;;;5011821;28;20030;-73
2022/11/04 05:22:50;;;;;;;42.97;27.50;;;7.30;99.90;;;;;;5011762;28;20033;-74
2022/11/04 05:25:16;;;;;;;71.85;31.58;;;7.40;99.90;;;;;;5011777;28;20089;-73
2022/11/04 05:27:42;;;;;;;47.92;29.50;;;7.40;99.90;;;;;;5011657;28;20026;-74
2022/11/04 05:30:08;;;;;;;55.72;27.73;;;7.50;99.90;;;;;;5011839;28;20088;-72
2022/11/04 05:32:34;;;;;;;64.97;31.67;;;7.50;99.90;;;;;;5009614;28;20450;-74
2022/11/04 05:35:00;;;;;;;39.88;27.67;;;7.50;99.90;;;;;;5009230;28;20022;-74
2022/11/04 05:37:26;;;;;;;45.97;28.17;;;7.60;99.90;;;;;;5011913;28;20455;-73
2022/11/04 05:39:52;;;;;;;44.65;26.77;;;7.60;99.90;;;;;;5010464;28;20018;-72
2022/11/04 05:42:18;;;;;;;40.88;28.27;;;7.60;99.90;;;;;;5011901;28;20026;-72
2022/11/04 05:44:44;;;;;;;44.03;27.92;;;7.60;99.90;;;;;;5011462;28;20034;-74
2022/11/04 05:47:10;;;;;;;39.55;26.67;;;7.70;99.90;;;;;;5011223;28;20025;-73
2022/11/04 05:49:36;;;;;;;39.00;27.05;;;7.80;99.90;;;;;;5002422;28;20126;-75
2022/11/04 05:52:01;;;;;;;41.17;28.92;;;7.70;99.90;;;;;;4991622;28;20358;-74
2022/11/04 05:54:27;;;;;;;40.50;28.23;;;7.70;99.90;;;;;;5010002;28;20022;-73
2022/11/04 05:56:53;;;;;;;39.85;26.67;;;7.60;99.90;;;;;;5009906;28;20061;-75
2022/11/04 05:59:19;;;;;;;44.35;28.90;;;7.50;99.90;;;;;;5010050;28;20028;-76
2022/11/04 06:01:45;;;;;;;44.75;29.00;;;7.40;99.90;;;;;;5009161;28;20108;-76
2022/11/04 06:04:17;;;;;;;44.83;29.58;;;7.50;99.90;;;;;;5009680;28;20018;-74
2022/11/04 06:06:43;;;;;;;38.47;25.13;;;7.40;99.90;;;;;;5010343;28;20096;-73
2022/11/04 06:09:09;;;;;;;35.50;23.58;;;7.30;99.90;;;;;;5002081;28;20031;-72
2022/11/04 06:11:39;;;;;;;41.88;27.02;;;7.30;99.90;;;;;;4990433;28;20151;-74
2022/11/04 06:14:05;;;;;;;39.63;24.88;;;7.10;99.90;;;;;;5006362;28;20091;-74
2022/11/04 06:16:31;;;;;;;41.97;25.80;;;7.30;99.90;;;;;;5008614;28;20431;-74
2022/11/04 06:18:57;;;;;;;40.92;24.38;;;7.20;99.90;;;;;;4976177;28;20476;-73
2022/11/04 06:21:29;;;;;;;40.35;25.83;;;7.40;99.90;;;;;;5006348;28;20073;-74
2022/11/04 06:23:56;;;;;;;40.50;26.30;;;7.40;99.90;;;;;;5009337;28;20637;-74
2022/11/04 06:26:23;;;;;;;38.00;26.20;;;7.50;99.90;;;;;;5011033;28;20030;-72
2022/11/04 06:28:49;;;;;;;41.28;26.80;;;7.60;99.90;;;;;;5011145;28;20074;-72
2022/11/04 06:31:15;;;;;;;40.70;26.65;;;7.70;99.90;;;;;;5011549;28;20478;-73
2022/11/04 06:33:42;;;;;;;37.95;25.65;;;7.80;99.90;;;;;;5011081;28;20512;-74
2022/11/04 06:36:11;;;;;;;43.38;28.20;;;7.90;99.90;;;;;;5011295;28;20161;-74
2022/11/04 06:38:38;;;;;;;36.92;26.20;;;8.10;99.90;;;;;;5011430;28;20029;-73
2022/11/04 06:41:09;;;;;;;39.38;27.15;;;8.20;99.90;;;;;;5011305;28;20018;-73
2022/11/04 06:43:35;;;;;;;36.83;25.77;;;8.20;99.90;;;;;;5011457;28;20034;-73
2022/11/04 06:46:01;;;;;;;42.92;25.95;;;8.50;99.90;;;;;;5011051;28;20024;-73
2022/11/04 06:48:29;;;;;;;43.25;28.88;;;8.80;99.90;;;;;;5011004;28;20109;-73
2022/11/04 06:50:57;;;;;;;46.60;28.67;;;9.10;99.90;;;;;;5011239;28;20025;-76
2022/11/04 06:53:23;;;;;;;43.53;29.55;;;9.20;99.90;;;;;;5011037;28;20045;-73
2022/11/04 06:55:50;;;;;;;44.10;27.48;;;9.40;99.90;;;;;;5010948;28;20519;-73
2022/11/04 06:58:16;;;;;;;40.97;29.13;;;9.40;99.90;;;;;;5010854;28;20038;-72
2022/11/04 07:00:41;;;;;;;41.92;27.80;;;9.70;99.90;;;;;;5011330;28;20473;-73
2022/11/04 07:03:09;;;;;;;41.85;26.20;;;9.40;99.90;;;;;;5010790;28;20060;-73
2022/11/04 07:05:34;;;;;;;41.60;27.30;;;9.40;99.90;;;;;;5011170;28;20303;-74
2022/11/04 07:08:00;;;;;;;42.67;26.90;;;9.60;99.90;;;;;;5010841;28;20539;-73
2022/11/04 07:10:26;;;;;;;39.08;28.38;;;9.30;99.90;;;;;;5010767;28;20206;-74
2022/11/04 07:12:53;;;;;;;41.05;26.60;;;9.30;99.90;;;;;;5013180;28;20037;-73
2022/11/04 07:15:19;;;;;;;48.75;30.35;;;9.40;99.90;;;;;;5014169;28;20424;-74
2022/11/04 07:17:48;;;;;;;48.28;30.95;;;9.50;99.90;;;;;;5013697;28;20100;-74
2022/11/04 07:20:14;;;;;;;38.50;26.52;;;9.30;99.90;;;;;;5013781;28;20026;-73
2022/11/04 07:22:39;;;;;;;43.97;28.63;;;9.20;99.90;;;;;;5014457;28;20535;-74
2022/11/04 07:25:06;;;;;;;40.53;26.77;;;9.40;99.90;;;;;;5013255;28;20506;-74
2022/11/04 07:27:31;;;;;;;44.15;26.55;;;9.40;99.90;;;;;;5014406;28;20366;-73
2022/11/04 07:29:57;;;;;;;40.33;28.42;;;9.40;99.90;;;;;;5014107;28;20033;-73
2022/11/04 07:32:23;;;;;;;43.15;26.13;;;9.60;99.90;;;;;;5010219;28;20029;-73
2022/11/04 07:34:49;;;;;;;42.35;30.45;;;10.00;99.90;;;;;;5012119;28;20022;-73
2022/11/04 07:37:15;;;;;;;44.72;27.02;;;10.30;99.90;;;;;;5013244;28;20469;-74
2022/11/04 07:39:40;;;;;;;43.40;28.50;;;10.50;99.90;;;;;;5013844;28;20072;-73
2022/11/04 07:42:07;;;;;;;42.65;26.42;;;10.70;99.90;;;;;;5013504;28;20112;-74
2022/11/04 07:44:33;;;;;;;49.63;29.52;;;11.00;99.90;;;;;;5013745;28;20432;-74
2022/11/04 07:46:59;;;;;;;48.90;30.90;;;11.10;99.90;;;;;;5013117;28;20089;-74
2022/11/04 07:49:25;;;;;;;50.08;31.15;;;11.10;99.90;;;;;;5000100;28;20559;-74
2022/11/04 07:51:51;;;;;;;49.85;29.13;;;11.20;99.90;;;;;;5013289;28;20033;-73
2022/11/04 07:54:17;;;;;;;44.53;31.50;;;11.30;99.90;;;;;;5013363;28;20018;-73
2022/11/04 07:56:43;;;;;;;43.92;29.10;;;11.30;99.90;;;;;;5013667;28;20543;-74
2022/11/04 07:59:09;;;;;;;47.55;31.65;;;11.40;99.90;;;;;;4995181;28;20118;-74
2022/11/04 08:01:36;;;;;;;56.03;33.88;;;11.50;99.90;;;;;;5013393;28;20092;-76
2022/11/04 08:04:03;;;;;;;51.55;32.95;;;11.60;99.90;;;;;;5012755;28;20096;-74
2022/11/04 08:06:30;;;;;;;48.25;34.00;;;11.70;99.90;;;;;;5012747;28;20089;-74
2022/11/04 08:08:57;;;;;;;51.22;32.28;;;11.90;99.90;;;;;;5012401;28;20033;-74
2022/11/04 08:11:27;;;;;;;50.63;33.08;;;12.00;99.90;;;;;;5011984;28;20535;-75
2022/11/04 08:13:54;;;;;;;46.35;31.00;;;12.20;99.90;;;;;;5012424;28;20460;-75
2022/11/04 08:16:22;;;;;;;51.05;32.70;;;12.30;99.90;;;;;;5012637;28;20041;-74
2022/11/04 08:18:51;;;;;;;46.90;32.03;;;12.40;99.90;;;;;;5012453;28;20028;-75
2022/11/04 08:21:18;;;;;;;48.88;33.95;;;12.60;99.90;;;;;;5012659;28;20084;-75
2022/11/04 08:23:45;;;;;;;51.67;34.90;;;12.60;99.90;;;;;;5011932;28;20026;-74
2022/11/04 08:26:15;;;;;;;52.28;32.90;;;12.70;99.90;;;;;;5012930;28;20052;-74
2022/11/04 08:28:41;;;;;;;60.35;32.67;;;12.70;99.90;;;;;;5012463;28;20026;-75
2022/11/04 08:31:09;;;;;;;49.92;32.63;;;12.90;99.90;;;;;;5012859;28;20018;-79
2022/11/04 08:33:35;;;;;;;53.85;34.53;;;13.00;99.90;;;;;;5010895;28;20021;-74
2022/11/04 08:36:06;;;;;;;48.03;31.70;;;13.20;99.90;;;;;;5000769;28;20038;-75
2022/11/04 08:38:33;;;;;;;50.20;30.00;;;13.20;99.90;;;;;;5012324;28;20472;-75
2022/11/04 08:41:02;;;;;;;45.08;30.65;;;13.40;99.90;;;;;;5012415;28;20026;-74
2022/11/04 08:43:28;;;;;;;51.55;29.50;;;13.30;99.90;;;;;;5011822;28;20045;-75
2022/11/04 08:45:54;;;;;;;52.92;29.77;;;13.40;99.90;;;;;;5012334;28;20115;-77
2022/11/04 08:48:21;;;;;;;45.90;29.30;;;13.40;99.90;;;;;;5012449;28;20042;-77
2022/11/04 08:50:52;;;;;;;44.67;29.60;;;13.40;99.90;;;;;;5012095;28;20559;-75
2022/11/04 08:53:18;;;;;;;45.80;28.67;;;13.50;99.90;;;;;;5012380;28;20480;-75
2022/11/04 08:55:44;;;;;;;44.80;28.80;;;13.50;99.90;;;;;;5012659;28;20034;-77
2022/11/04 08:58:11;;;;;;;38.70;26.63;;;13.60;99.90;;;;;;5012470;28;20026;-76
2022/11/04 09:00:37;;;;;;;49.95;28.83;;;13.50;99.90;;;;;;5012565;28;20029;-76
2022/11/04 09:03:03;;;;;;;41.78;28.13;;;13.60;99.90;;;;;;5012230;28;20030;-76
2022/11/04 09:05:30;;;;;;;53.25;27.40;;;13.70;99.90;;;;;;5012582;28;20038;-76
2022/11/04 09:07:56;;;;;;;46.97;28.60;;;13.80;99.90;;;;;;5012001;28;20109;-76
2022/11/04 09:10:22;;;;;;;44.70;31.65;;;13.90;99.90;;;;;;5012283;28;20105;-77
2022/11/04 09:12:48;;;;;;;44.17;29.77;;;13.80;99.90;;;;;;5001376;28;20051;-76
2022/11/04 09:15:14;;;;;;;44.47;30.02;;;13.80;99.90;;;;;;4992259;28;20034;-76
2022/11/04 09:17:40;;;;;;;43.13;29.85;;;14.00;99.90;;;;;;4992364;28;20499;-76
2022/11/04 09:20:10;;;;;;;43.38;27.50;;;14.10;99.90;;;;;;4992221;28;20485;-77
2022/11/04 09:22:37;;;;;;;39.97;27.30;;;14.20;99.90;;;;;;4992076;28;20188;-76
2022/11/04 09:25:03;;;;;;;42.90;28.00;;;14.30;99.90;;;;;;4991928;28;20026;-75
2022/11/04 09:27:29;;;;;;;45.35;28.60;;;14.50;99.90;;;;;;4974664;28;20121;-76
2022/11/04 09:29:55;;;;;;;48.20;31.55;;;14.60;99.90;;;;;;4991956;28;20212;-76
2022/11/04 09:32:21;;;;;;;47.92;29.77;;;14.60;99.90;;;;;;4990871;28;20473;-76
2022/11/04 09:34:47;;;;;;;43.65;29.42;;;14.70;99.90;;;;;;4991444;28;20373;-76
2022/11/04 09:37:13;;;;;;;47.38;28.90;;;14.90;99.90;;;;;;4991289;28;20042;-76
2022/11/04 09:39:38;;;;;;;40.05;26.25;;;15.10;99.90;;;;;;4991481;28;20373;-76
2022/11/04 09:42:17;;;;;;;47.78;28.08;;;15.10;99.90;;;;;;4991591;28;20034;-76
2022/11/04 09:44:43;;;;;;;41.65;27.65;;;15.20;99.90;;;;;;4982651;28;20031;-76
2022/11/04 09:47:10;;;;;;;41.63;26.13;;;15.20;99.90;;;;;;4986810;28;20021;-77
2022/11/04 09:49:40;;;;;;;43.05;28.27;;;15.30;99.90;;;;;;4991917;28;20093;-77
2022/11/04 09:52:22;;;;;;;50.85;28.73;;;15.40;99.90;;;;;;4991144;28;20023;-76
2022/11/04 09:55:08;;;;;;;45.15;26.10;;;15.40;99.90;;;;;;4989235;28;20072;-77
2022/11/04 09:57:34;;;;;;;49.50;28.10;;;15.50;99.90;;;;;;4901924;29;20093;-76
2022/11/04 10:00:00;;;;;;;42.60;26.63;;;15.60;99.90;;;;;;4910900;29;20446;-76
2022/11/04 10:02:41;;;;;;;39.45;27.98;;;15.70;99.90;;;;;;4912431;29;20078;-77
2022/11/04 10:05:07;;;;;;;43.70;28.05;;;15.80;99.90;;;;;;4911017;29;20036;-75
2022/11/04 10:07:57;;;;;;;43.47;28.55;;;16.00;99.90;;;;;;4907426;29;20399;-77
2022/11/04 10:10:38;;;;;;;46.38;27.73;;;16.10;99.90;;;;;;4898866;29;20032;-76
2022/11/04 10:13:33;;;;;;;41.65;26.75;;;16.30;99.90;;;;;;4920508;29;20048;-76
2022/11/04 10:16:14;;;;;;;42.72;27.05;;;16.60;99.90;;;;;;4929606;29;20510;-79
2022/11/04 10:19:35;;;;;;;47.08;29.67;;;16.70;99.90;;;;;;4934112;29;20044;-76
2022/11/04 10:23:01;;;;;;;44.03;29.05;;;16.80;99.90;;;;;;4829384;29;20030;-76
2022/11/04 10:26:26;;;;;;;50.90;31.07;;;16.90;99.90;;;;;;4824233;29;20125;-78
2022/11/04 10:29:37;;;;;;;56.30;32.10;;;17.00;99.90;;;;;;4824261;29;20070;-76
2022/11/04 10:39:53;;;;;;;48.50;31.23;;;17.30;99.90;;;;;;4766280;30;20105;-78
2022/11/04 10:42:21;;;;;;;43.55;29.17;;;17.50;99.90;;;;;;4743549;30;20047;-77
2022/11/04 10:45:48;;;;;;;51.22;31.10;;;17.60;99.90;;;;;;4770973;30;20040;-80
2022/11/04 10:49:25;;;;;;;;;;;;;;;;;;;;;
2022/11/04 10:57:14;;;;;;;51.70;29.13;;;17.80;99.90;;;;;;4734157;30;20060;-78
2022/11/04 11:00:01;;;;;;;41.92;25.88;;;17.80;99.90;;;;;;4795948;29;20035;-78
2022/11/04 11:02:40;;;;;;;43.95;27.75;;;17.90;99.90;;;;;;4824066;29;20066;-78
2022/11/04 11:06:16;;;;;;;;;;;;;;;;;;;;;
2022/11/04 11:09:28;;;;;;;44.03;25.13;;;17.90;99.90;;;;;;4821523;29;20047;-80
2022/11/04 11:12:39;;;;;;;42.03;26.65;;;18.00;99.90;;;;;;4831367;29;20054;-78
2022/11/04 11:15:31;;;;;;;39.40;23.65;;;18.20;99.90;;;;;;4850221;29;20711;-78
2022/11/04 11:18:30;;;;;;;41.10;23.08;;;18.30;99.90;;;;;;4845014;29;20100;-78
2022/11/04 11:21:20;;;;;;;43.03;23.80;;;18.40;99.90;;;;;;4840984;29;20538;-79
2022/11/04 11:23:49;;;;;;;37.38;23.65;;;18.30;99.90;;;;;;4858420;29;20349;-78
2022/11/04 11:26:33;;;;;;;48.95;22.38;;;18.20;99.90;;;;;;4846428;29;20517;-77
2022/11/04 11:29:10;;;;;;;36.20;21.58;;;18.20;99.90;;;;;;4842244;29;20358;-78
2022/11/04 11:32:02;;;;;;;37.85;23.67;;;18.30;99.90;;;;;;4906548;28;20042;-78
2022/11/04 11:34:38;;;;;;;46.53;22.07;;;18.30;99.90;;;;;;4988117;28;20030;-78
2022/11/04 11:37:22;;;;;;;41.40;22.90;;;18.20;99.90;;;;;;5017321;28;20295;-79
2022/11/04 11:39:51;;;;;;;32.30;20.10;;;18.20;99.90;;;;;;5019352;28;20053;-78
2022/11/04 11:42:29;;;;;;;36.90;21.42;;;18.20;99.90;;;;;;5014366;28;20018;-80
2022/11/04 11:45:17;;;;;;;34.88;20.98;;;18.10;99.90;;;;;;4992502;28;20030;-78
2022/11/04 11:48:20;;;;;;;42.97;23.13;;;18.10;99.90;;;;;;5013851;28;20045;-78
2022/11/04 11:50:58;;;;;;;40.35;22.40;;;18.00;99.90;;;;;;5012602;28;20392;-78
2022/11/04 11:53:32;;;;;;;39.63;24.08;;;17.90;99.90;;;;;;5021352;28;20030;-79
2022/11/04 11:56:33;;;;;;;31.33;21.58;;;17.90;99.90;;;;;;5019596;28;20041;-78
2022/11/04 12:00:09;;;;;;;38.67;22.40;;;17.90;99.90;;;;;;5012408;28;20113;-78
2022/11/04 12:03:14;;;;;;;34.00;20.15;;;17.90;99.90;;;;;;4899697;29;20060;-79
2022/11/04 12:06:13;;;;;;;35.08;18.80;;;17.90;99.90;;;;;;4905702;29;20028;-79
2022/11/04 12:09:11;;;;;;;36.13;20.45;;;17.90;99.90;;;;;;4902642;29;20044;-78
2022/11/04 12:11:50;;;;;;;33.88;19.55;;;17.90;99.90;;;;;;4899571;29;20054;-78
2022/11/04 12:14:35;;;;;;;35.13;20.38;;;17.90;99.90;;;;;;4912749;29;20048;-79
2022/11/04 12:17:40;;;;;;;36.80;18.25;;;17.90;99.90;;;;;;4914018;29;20490;-78
2022/11/04 12:21:08;;;;;;;33.67;19.80;;;17.90;99.90;;;;;;4914612;29;20047;-78
2022/11/04 12:23:54;;;;;;;33.33;19.67;;;17.80;99.90;;;;;;4861284;29;20061;-77
2022/11/04 12:27:06;;;;;;;34.85;20.30;;;17.80;99.90;;;;;;4844817;29;20053;-79
2022/11/04 12:30:09;;;;;;;34.00;19.25;;;17.80;99.90;;;;;;4814733;29;20035;-78
2022/11/04 12:33:15;;;;;;;30.58;18.42;;;17.80;99.90;;;;;;4873828;29;20044;-77
2022/11/04 12:36:17;;;;;;;37.63;18.83;;;17.90;99.90;;;;;;4935530;29;20048;-78
2022/11/04 12:39:17;;;;;;;30.48;17.48;;;18.00;99.90;;;;;;4926207;29;20031;-77
2022/11/04 12:41:59;;;;;;;34.88;17.02;;;18.00;99.90;;;;;;4895510;29;20041;-78
2022/11/04 12:44:34;;;;;;;;;;;18.10;99.90;;;;;;4898698;29;20076;-78
2022/11/04 12:47:26;;;;;;;28.33;14.98;;;18.10;99.90;;;;;;4894961;29;19919;-78
2022/11/04 12:50:22;;;;;;;33.15;18.92;;;18.20;99.90;;;;;;4889373;29;20033;-80
2022/11/04 12:53:10;;;;;;;35.83;18.70;;;18.20;99.90;;;;;;4860460;29;20065;-78
2022/11/04 12:56:11;;;;;;;40.75;18.83;;;18.20;99.90;;;;;;4849004;29;20496;-78
2022/11/04 12:59:29;;;;;;;34.33;18.40;;;18.30;99.90;;;;;;4859436;29;20079;-78
2022/11/04 13:02:24;;;;;;;33.70;16.70;;;18.30;99.90;;;;;;4914244;29;20032;-77
2022/11/04 13:05:15;;;;;;;26.67;13.25;;;18.30;99.90;;;;;;4894784;29;20041;-77
2022/11/04 13:08:17;;;;;;;25.40;14.02;;;18.40;99.90;;;;;;4887469;29;20045;-77
2022/11/04 13:11:33;;;;;;;39.78;15.88;;;18.40;99.90;;;;;;4881121;29;20041;-78
2022/11/04 13:14:28;;;;;;;31.75;17.33;;;18.30;99.90;;;;;;4886290;29;20040;-81
2022/11/04 13:17:03;;;;;;;40.15;17.35;;;18.20;99.90;;;;;;4891584;29;20124;-78
2022/11/04 13:19:55;;;;;;;40.00;16.98;;;18.10;99.90;;;;;;4891337;29;20126;-77
2022/11/04 13:22:38;;;;;;;31.67;16.67;;;18.10;99.90;;;;;;4913028;29;20140;-80
2022/11/04 13:25:14;;;;;;;49.65;19.55;;;18.10;99.90;;;;;;4912518;29;20040;-79
2022/11/04 13:27:46;;;;;;;28.73;17.40;;;18.00;99.90;;;;;;4884767;29;20088;-78
2022/11/04 13:30:46;;;;;;;36.45;17.10;;;18.00;99.90;;;;;;4925657;29;20032;-78
2022/11/04 13:34:10;;;;;;;33.92;16.88;;;18.10;99.90;;;;;;4926359;29;20028;-78
2022/11/04 13:37:03;;;;;;;40.28;18.10;;;18.10;99.90;;;;;;4934628;29;20039;-78
2022/11/04 13:39:50;;;;;;;31.30;18.15;;;18.10;99.90;;;;;;4920972;29;20482;-78
2022/11/04 13:46:10;;;;;;;40.20;20.13;;;18.10;99.90;;;;;;4938228;29;20066;-78
2022/11/04 13:48:57;;;;;;;35.28;20.73;;;18.00;99.90;;;;;;4950563;29;20034;-79
2022/11/04 13:51:41;;;;;;;41.60;18.70;;;18.00;99.90;;;;;;4957267;29;20428;-78
2022/11/04 13:54:27;;;;;;;58.15;21.60;;;18.00;99.90;;;;;;4923827;29;20035;-78
2022/11/04 13:57:37;;;;;;;38.08;20.48;;;18.10;99.90;;;;;;4940936;29;20051;-78
2022/11/04 14:03:35;;;;;;;33.90;19.58;;;17.90;99.90;;;;;;4857198;29;20460;-78
2022/11/04 14:06:05;;;;;;;31.88;21.25;;;17.90;99.90;;;;;;4839823;29;20037;-79
2022/11/04 14:08:31;;;;;;;40.33;25.15;;;17.80;99.90;;;;;;4857029;29;20060;-80